createdAt,value
2022-08-03T00:01:50.523Z,15.63
2022-08-03T00:04:17.374Z,15.77
2022-08-03T00:06:43.824Z,15.73
2022-08-03T00:09:11.324Z,15.59
2022-08-03T00:11:38.287Z,15.49
2022-08-03T00:14:06.297Z,15.56
2022-08-03T00:16:32.831Z,15.54
2022-08-03T00:19:01.075Z,15.50
2022-08-03T00:21:28.583Z,15.49
2022-08-03T00:23:55.042Z,15.21
2022-08-03T00:26:21.943Z,15.20
2022-08-03T00:28:49.449Z,15.50
2022-08-03T00:31:16.333Z,15.42
2022-08-03T00:33:58.441Z,14.80
2022-08-03T00:36:26.420Z,15.05
2022-08-03T00:38:52.818Z,15.19
2022-08-03T00:41:19.227Z,15.26
2022-08-03T00:43:47.373Z,15.34
2022-08-03T00:46:16.440Z,15.10
2022-08-03T00:48:47.157Z,15.13
2022-08-03T00:51:13.739Z,14.91
2022-08-03T00:53:40.169Z,14.94
2022-08-03T00:56:06.792Z,14.90
2022-08-03T00:58:33.285Z,14.81
2022-08-03T01:00:59.848Z,14.61
2022-08-03T01:03:26.330Z,14.84
2022-08-03T01:06:04.729Z,14.79
2022-08-03T01:08:59.514Z,14.80
2022-08-03T01:11:59.877Z,14.71
2022-08-03T01:15:06.145Z,14.44
2022-08-03T01:17:40.117Z,14.61
2022-08-03T01:20:10.603Z,14.63
2022-08-03T01:22:45.642Z,14.59
2022-08-03T01:25:18.315Z,14.46
2022-08-03T01:27:56.976Z,14.43
2022-08-03T01:30:29.796Z,14.43
2022-08-03T01:33:03.262Z,14.21
2022-08-03T01:35:39.209Z,14.37
2022-08-03T01:38:23.797Z,14.33
2022-08-03T01:40:54.662Z,14.28
2022-08-03T01:44:26.792Z,14.20
2022-08-03T01:46:15.703Z,14.23
2022-08-03T01:48:43.483Z,14.13
2022-08-03T01:51:11.287Z,14.09
2022-08-03T01:53:42.880Z,14.29
2022-08-03T01:56:10.387Z,14.29
2022-08-03T01:58:38.627Z,14.24
2022-08-03T02:01:05.732Z,14.09
2022-08-03T02:03:36.965Z,14.06
2022-08-03T02:06:59.942Z,13.92
2022-08-03T02:08:53.514Z,14.05
2022-08-03T02:11:20.178Z,13.89
2022-08-03T02:13:49.252Z,13.71
2022-08-03T02:16:18.999Z,13.75
2022-08-03T02:18:47.841Z,13.73
2022-08-03T02:21:55.664Z,13.71
2022-08-03T02:24:04.460Z,13.83
2022-08-03T02:26:31.960Z,13.77
2022-08-03T02:29:06.941Z,13.83
2022-08-03T02:31:38.194Z,13.61
2022-08-03T02:34:10.455Z,13.83
2022-08-03T02:36:39.537Z,13.77
2022-08-03T02:39:09.871Z,13.47
2022-08-03T02:41:41.165Z,13.68
2022-08-03T02:44:09.751Z,13.73
2022-08-03T02:46:39.732Z,13.46
2022-08-03T02:49:40.979Z,13.45
2022-08-03T02:51:55.199Z,13.41
2022-08-03T02:54:24.949Z,13.39
2022-08-03T02:56:53.341Z,13.33
2022-08-03T02:59:21.032Z,13.47
2022-08-03T03:01:48.347Z,13.28
2022-08-03T03:04:16.395Z,13.61
2022-08-03T03:06:44.174Z,13.69
2022-08-03T03:09:13.741Z,13.49
2022-08-03T03:11:42.249Z,13.49
2022-08-03T03:14:11.301Z,13.71
2022-08-03T03:16:39.385Z,13.70
2022-08-03T03:19:07.698Z,13.47
2022-08-03T03:21:37.046Z,13.73
2022-08-03T03:24:05.886Z,13.51
2022-08-03T03:26:34.386Z,13.74
2022-08-03T03:29:02.486Z,13.63
2022-08-03T03:31:29.316Z,13.70
2022-08-03T03:33:59.404Z,13.76
2022-08-03T03:36:25.852Z,13.71
2022-08-03T03:38:53.808Z,13.68
2022-08-03T03:41:20.489Z,14.05
2022-08-03T03:43:47.984Z,14.19
2022-08-03T03:46:16.093Z,14.00
2022-08-03T03:48:42.679Z,13.95
2022-08-03T03:51:09.791Z,14.03
2022-08-03T03:53:36.223Z,14.07
2022-08-03T03:56:03.147Z,14.03
2022-08-03T03:58:31.441Z,14.19
2022-08-03T04:00:57.933Z,14.06
2022-08-03T04:03:24.388Z,14.08
2022-08-03T04:06:09.553Z,14.28
2022-08-03T04:08:54.867Z,14.15
2022-08-03T04:11:37.775Z,14.10
2022-08-03T04:14:12.194Z,14.28
2022-08-03T04:16:43.998Z,14.12
2022-08-03T04:19:19.666Z,14.14
2022-08-03T04:21:52.123Z,14.20
2022-08-03T04:24:20.698Z,14.11
2022-08-03T04:26:53.675Z,14.29
2022-08-03T04:29:21.259Z,14.15
2022-08-03T04:31:48.947Z,14.06
2022-08-03T04:34:16.089Z,14.11
2022-08-03T04:36:49.298Z,14.04
2022-08-03T04:39:25.645Z,14.15
2022-08-03T04:42:07.643Z,14.20
2022-08-03T04:44:41.062Z,14.35
2022-08-03T04:47:07.778Z,14.41
2022-08-03T04:49:37.260Z,14.48
2022-08-03T04:52:04.786Z,14.43
2022-08-03T04:54:39.238Z,14.34
2022-08-03T04:57:05.650Z,14.66
2022-08-03T04:59:32.219Z,14.51
2022-08-03T05:01:58.640Z,14.60
2022-08-03T05:04:25.094Z,14.77
2022-08-03T05:06:55.197Z,14.88
2022-08-03T05:09:46.109Z,14.86
2022-08-03T05:12:09.726Z,15.14
2022-08-03T05:14:38.738Z,15.20
2022-08-03T05:17:09.099Z,15.31
2022-08-03T05:19:35.769Z,15.31
2022-08-03T05:22:03.205Z,15.33
2022-08-03T05:24:30.050Z,15.40
2022-08-03T05:26:56.442Z,15.54
2022-08-03T05:29:22.865Z,15.54
2022-08-03T05:31:49.355Z,15.61
2022-08-03T05:34:15.778Z,15.75
2022-08-03T05:36:42.281Z,15.74
2022-08-03T05:39:08.697Z,15.97
2022-08-03T05:41:36.959Z,15.95
2022-08-03T05:44:04.471Z,16.02
2022-08-03T05:46:30.943Z,16.10
2022-08-03T05:48:57.443Z,16.34
2022-08-03T05:51:24.049Z,16.34
2022-08-03T05:53:50.614Z,16.44
2022-08-03T05:56:17.239Z,16.47
2022-08-03T05:58:48.003Z,16.65
2022-08-03T06:01:16.172Z,16.95
2022-08-03T06:03:42.791Z,16.89
2022-08-03T06:06:09.304Z,17.22
2022-08-03T06:08:35.885Z,17.35
2022-08-03T06:11:02.561Z,17.25
2022-08-03T06:13:29.577Z,17.50
2022-08-03T06:15:56.134Z,17.54
2022-08-03T06:18:24.626Z,17.63
2022-08-03T06:20:52.296Z,17.79
2022-08-03T06:23:19.007Z,17.82
2022-08-03T06:25:46.056Z,18.04
2022-08-03T06:28:35.304Z,18.19
2022-08-03T06:31:03.511Z,18.42
2022-08-03T06:34:31.161Z,18.40
2022-08-03T06:36:19.553Z,18.29
2022-08-03T06:38:46.121Z,18.44
2022-08-03T06:41:12.695Z,18.87
2022-08-03T06:44:03.466Z,18.83
2022-08-03T06:46:31.014Z,18.88
2022-08-03T06:48:57.610Z,18.99
2022-08-03T06:52:03.377Z,19.15
2022-08-03T06:54:12.284Z,19.11
2022-08-03T06:56:38.725Z,19.25
2022-08-03T06:59:05.194Z,19.53
2022-08-03T07:01:34.687Z,19.55
2022-08-03T07:04:01.234Z,19.43
2022-08-03T07:06:31.795Z,19.62
2022-08-03T07:08:59.792Z,19.66
2022-08-03T07:11:26.584Z,19.68
2022-08-03T07:13:54.101Z,19.83
2022-08-03T07:16:20.569Z,19.87
2022-08-03T07:18:47.053Z,20.01
2022-08-03T07:21:13.631Z,20.07
2022-08-03T07:23:40.063Z,20.03
2022-08-03T07:26:06.506Z,20.11
2022-08-03T07:28:33.057Z,20.09
2022-08-03T07:30:59.630Z,20.37
2022-08-03T07:33:26.078Z,20.43
2022-08-03T07:35:52.494Z,20.49
2022-08-03T07:38:21.003Z,20.69
2022-08-03T07:40:47.926Z,20.66
2022-08-03T07:43:14.496Z,20.87
2022-08-03T07:45:40.915Z,20.95
2022-08-03T07:48:11.784Z,21.23
2022-08-03T07:50:38.886Z,21.02
2022-08-03T07:53:05.307Z,21.03
2022-08-03T07:55:31.852Z,21.30
2022-08-03T07:58:20.639Z,21.54
2022-08-03T08:00:48.873Z,21.72
2022-08-03T08:03:15.411Z,21.70
2022-08-03T08:05:42.102Z,21.78
2022-08-03T08:08:09.572Z,21.71
2022-08-03T08:10:36.258Z,21.76
2022-08-03T08:13:03.962Z,21.99
2022-08-03T08:15:31.599Z,22.23
2022-08-03T08:18:00.900Z,22.19
2022-08-03T08:20:31.322Z,22.37
2022-08-03T08:23:12.126Z,22.47
2022-08-03T08:25:52.078Z,22.45
2022-08-03T08:28:29.064Z,22.62
2022-08-03T08:30:58.419Z,22.55
2022-08-03T08:33:25.830Z,22.69
2022-08-03T08:35:53.669Z,22.63
2022-08-03T08:38:20.454Z,23.13
2022-08-03T08:40:48.882Z,23.24
2022-08-03T08:43:15.367Z,23.11
2022-08-03T08:45:42.535Z,23.03
2022-08-03T08:48:10.622Z,23.57
2022-08-03T08:50:38.806Z,23.66
2022-08-03T08:53:09.667Z,23.67
2022-08-03T08:55:58.921Z,23.76
2022-08-03T08:58:26.255Z,23.93
2022-08-03T09:00:52.799Z,23.93
2022-08-03T09:03:22.585Z,24.34
2022-08-03T09:05:58.807Z,24.31
2022-08-03T09:08:25.606Z,24.36
2022-08-03T09:10:52.071Z,24.36
2022-08-03T09:13:19.143Z,24.53
2022-08-03T09:15:52.762Z,24.55
2022-08-03T09:18:32.192Z,24.59
2022-08-03T09:21:32.610Z,24.84
2022-08-03T09:24:03.875Z,25.12
2022-08-03T09:26:33.164Z,25.25
2022-08-03T09:29:14.794Z,25.22
2022-08-03T09:31:45.345Z,25.61
2022-08-03T09:34:17.724Z,25.67
2022-08-03T09:36:46.719Z,25.90
2022-08-03T09:39:40.459Z,26.01
2022-08-03T09:42:14.720Z,26.27
2022-08-03T09:44:47.198Z,26.38
2022-08-03T09:47:16.957Z,26.61
2022-08-03T09:49:57.921Z,26.73
2022-08-03T09:52:52.362Z,26.83
2022-08-03T09:56:34.556Z,26.98
2022-08-03T09:58:11.581Z,27.25
2022-08-03T10:01:07.832Z,27.36
2022-08-03T10:04:04.380Z,27.45
2022-08-03T10:06:31.621Z,27.62
2022-08-03T10:09:07.336Z,27.70
2022-08-03T10:11:41.161Z,27.92
2022-08-03T10:14:10.524Z,27.95
2022-08-03T10:16:38.983Z,28.10
2022-08-03T10:19:07.691Z,28.21
2022-08-03T10:21:36.103Z,28.22
2022-08-03T10:24:05.053Z,28.82
2022-08-03T10:26:34.612Z,28.70
2022-08-03T10:29:03.953Z,28.98
2022-08-03T10:31:58.037Z,29.03
2022-08-03T10:34:29.008Z,29.03
2022-08-03T10:36:58.799Z,28.78
2022-08-03T10:39:29.543Z,29.02
2022-08-03T10:42:03.003Z,28.83
2022-08-03T10:44:37.115Z,29.25
2022-08-03T10:47:04.987Z,29.03
2022-08-03T10:49:34.264Z,28.61
2022-08-03T10:52:12.867Z,28.82
2022-08-03T10:55:09.987Z,28.93
2022-08-03T10:57:49.612Z,28.97
2022-08-03T11:00:24.819Z,28.29
2022-08-03T11:03:06.222Z,29.14
2022-08-03T11:05:38.350Z,29.09
2022-08-03T11:08:22.350Z,28.72
2022-08-03T11:10:50.660Z,28.51
2022-08-03T11:13:20.255Z,28.58
2022-08-03T11:15:49.584Z,28.88
2022-08-03T11:18:17.037Z,28.94
2022-08-03T11:20:45.969Z,29.10
2022-08-03T11:23:17.294Z,28.88
2022-08-03T11:26:09.929Z,29.09
2022-08-03T11:28:38.901Z,28.53
2022-08-03T11:31:48.055Z,29.11
2022-08-03T11:34:12.119Z,28.59
2022-08-03T11:37:16.497Z,29.41
2022-08-03T11:39:45.821Z,28.98
2022-08-03T11:42:24.551Z,29.33
2022-08-03T11:44:52.291Z,28.85
2022-08-03T11:47:20.627Z,29.24
2022-08-03T11:49:48.328Z,29.20
2022-08-03T11:52:16.308Z,29.47
2022-08-03T11:54:43.372Z,29.47
2022-08-03T11:57:10.347Z,28.76
2022-08-03T11:59:38.832Z,28.92
2022-08-03T12:02:08.445Z,29.61
2022-08-03T12:04:51.417Z,29.45
2022-08-03T12:08:02.218Z,29.38
2022-08-03T12:10:15.624Z,29.94
2022-08-03T12:12:46.311Z,29.98
2022-08-03T12:15:13.394Z,30.15
2022-08-03T12:17:41.652Z,29.30
2022-08-03T12:20:10.299Z,28.77
2022-08-03T12:22:39.303Z,29.35
2022-08-03T12:25:07.703Z,29.40
2022-08-03T12:27:35.088Z,29.21
2022-08-03T12:30:02.461Z,28.64
2022-08-03T12:32:32.024Z,29.74
2022-08-03T12:35:01.330Z,29.94
2022-08-03T12:37:28.985Z,29.69
2022-08-03T12:40:01.378Z,29.94
2022-08-03T12:42:36.440Z,29.93
2022-08-03T12:45:22.717Z,29.70
2022-08-03T12:48:01.109Z,29.83
2022-08-03T12:50:35.284Z,29.90
2022-08-03T12:53:05.246Z,30.20
2022-08-03T12:55:56.410Z,30.30
2022-08-03T12:58:36.334Z,30.59
2022-08-03T13:01:09.196Z,30.62
2022-08-03T13:03:50.525Z,30.79
2022-08-03T13:06:24.859Z,30.56
2022-08-03T13:09:07.934Z,30.70
2022-08-03T13:11:50.661Z,30.55
2022-08-03T13:14:21.017Z,30.77
2022-08-03T13:16:50.823Z,30.48
2022-08-03T13:19:17.674Z,30.86
2022-08-03T13:22:03.430Z,30.70
2022-08-03T13:24:32.150Z,30.49
2022-08-03T13:26:59.571Z,30.77
2022-08-03T13:29:26.076Z,30.71
2022-08-03T13:31:52.617Z,30.79
2022-08-03T13:34:23.023Z,31.03
2022-08-03T13:37:08.528Z,31.03
2022-08-03T13:39:57.882Z,31.24
2022-08-03T13:42:22.850Z,30.87
2022-08-03T13:44:49.318Z,31.24
2022-08-03T13:47:16.233Z,31.27
2022-08-03T13:49:42.899Z,31.13
2022-08-03T13:52:26.091Z,31.47
2022-08-03T13:54:52.596Z,31.57
2022-08-03T13:58:02.507Z,31.28
2022-08-03T14:00:07.077Z,30.97
2022-08-03T14:02:33.580Z,31.46
2022-08-03T14:05:00.049Z,31.62
2022-08-03T14:07:26.460Z,31.78
2022-08-03T14:09:52.898Z,31.25
2022-08-03T14:12:19.351Z,31.20
2022-08-03T14:14:45.794Z,31.03
2022-08-03T14:17:12.239Z,31.02
2022-08-03T14:19:53.280Z,30.76
2022-08-03T14:22:21.277Z,31.65
2022-08-03T14:24:47.785Z,31.34
2022-08-03T14:27:16.094Z,31.53
2022-08-03T14:29:42.599Z,31.32
2022-08-03T14:32:10.876Z,31.67
2022-08-03T14:34:38.739Z,31.74
2022-08-03T14:37:05.247Z,31.77
2022-08-03T14:39:58.268Z,31.70
2022-08-03T14:42:18.066Z,31.36
2022-08-03T14:44:44.607Z,31.31
2022-08-03T14:47:11.131Z,31.38
2022-08-03T14:50:36.646Z,31.63
2022-08-03T14:52:24.393Z,31.40
2022-08-03T14:54:50.865Z,31.71
2022-08-03T14:57:17.640Z,31.75
2022-08-03T14:59:56.174Z,31.77
2022-08-03T15:02:24.819Z,31.94
2022-08-03T15:04:52.074Z,32.25
2022-08-03T15:07:18.990Z,32.48
2022-08-03T15:09:45.696Z,31.94
2022-08-03T15:12:12.295Z,31.92
2022-08-03T15:14:39.888Z,31.63
2022-08-03T15:17:13.490Z,31.85
2022-08-03T15:20:01.641Z,31.45
2022-08-03T15:22:34.429Z,31.98
2022-08-03T15:26:01.610Z,32.21
2022-08-03T15:28:03.480Z,32.02
2022-08-03T15:30:33.817Z,32.03
2022-08-03T15:33:00.239Z,31.33
2022-08-03T15:35:28.810Z,31.54
2022-08-03T15:37:55.252Z,31.86
2022-08-03T15:40:21.871Z,32.17
2022-08-03T15:42:49.353Z,31.95
2022-08-03T15:45:17.846Z,32.22
2022-08-03T15:47:46.893Z,31.85
2022-08-03T15:50:13.507Z,32.01
2022-08-03T15:52:39.923Z,32.11
2022-08-03T15:55:06.963Z,31.86
2022-08-03T15:57:33.429Z,32.25
2022-08-03T16:00:19.765Z,31.78
2022-08-03T16:03:00.133Z,31.16
2022-08-03T16:05:26.569Z,31.50
2022-08-03T16:07:58.610Z,31.59
2022-08-03T16:10:32.229Z,31.50
2022-08-03T16:12:59.853Z,31.64
2022-08-03T16:15:26.431Z,31.86
2022-08-03T16:17:52.966Z,32.35
2022-08-03T16:20:34.349Z,32.42
2022-08-03T16:23:10.809Z,32.33
2022-08-03T16:25:39.766Z,31.89
2022-08-03T16:28:13.023Z,32.29
2022-08-03T16:30:41.525Z,32.33
2022-08-03T16:33:08.156Z,32.56
2022-08-03T16:35:34.639Z,32.60
2022-08-03T16:38:01.105Z,32.60
2022-08-03T16:40:27.741Z,32.28
2022-08-03T16:42:54.501Z,32.41
2022-08-03T16:45:21.179Z,32.07
2022-08-03T16:47:47.597Z,32.41
2022-08-03T16:50:27.772Z,32.38
2022-08-03T16:52:54.174Z,32.42
2022-08-03T16:55:49.173Z,32.03
2022-08-03T16:58:07.768Z,31.97
2022-08-03T17:00:41.790Z,32.30
2022-08-03T17:03:18.979Z,32.21
2022-08-03T17:05:48.237Z,32.31
2022-08-03T17:08:26.243Z,32.22
2022-08-03T17:10:54.691Z,31.94
2022-08-03T17:13:21.703Z,31.77
2022-08-03T17:16:00.858Z,31.47
2022-08-03T17:18:34.077Z,31.49
2022-08-03T17:21:05.818Z,31.48
2022-08-03T17:23:44.358Z,31.28
2022-08-03T17:26:21.155Z,31.22
2022-08-03T17:28:57.876Z,30.93
2022-08-03T17:31:31.332Z,30.64
2022-08-03T17:34:06.967Z,30.55
2022-08-03T17:37:02.194Z,30.24
2022-08-03T17:39:36.156Z,30.05
2022-08-03T17:42:26.847Z,29.78
2022-08-03T17:44:57.163Z,29.43
2022-08-03T17:47:41.248Z,29.24
2022-08-03T17:50:24.586Z,29.01
2022-08-03T17:53:07.606Z,28.69
2022-08-03T17:55:57.277Z,28.43
2022-08-03T17:58:52.362Z,28.23
2022-08-03T18:02:02.673Z,27.75
2022-08-03T18:04:34.157Z,27.29
2022-08-03T18:10:04.315Z,26.66
2022-08-03T18:12:47.035Z,26.52
2022-08-03T18:15:24.958Z,26.38
2022-08-03T18:17:55.766Z,26.05
2022-08-03T18:20:34.271Z,26.09
2022-08-03T18:23:05.802Z,25.83
2022-08-03T18:28:23.159Z,25.27
2022-08-03T18:30:54.987Z,24.93
2022-08-03T18:34:16.977Z,24.84
2022-08-03T18:36:17.905Z,24.24
2022-08-03T18:38:50.910Z,24.25
2022-08-03T18:41:31.877Z,24.02
2022-08-03T18:44:08.022Z,23.90
2022-08-03T18:47:16.543Z,23.66
2022-08-03T18:50:01.065Z,23.35
2022-08-03T18:52:53.007Z,23.61
2022-08-03T18:55:35.433Z,23.20
2022-08-03T18:58:17.773Z,23.16
2022-08-03T19:01:15.469Z,23.02
2022-08-03T19:04:04.055Z,22.62
2022-08-03T19:06:31.714Z,22.66
2022-08-03T19:09:09.532Z,22.65
2022-08-03T19:12:14.501Z,22.30
2022-08-03T19:14:44.183Z,22.46
2022-08-03T19:17:12.533Z,22.29
2022-08-03T19:19:44.946Z,22.11
2022-08-03T19:22:12.855Z,21.89
2022-08-03T19:24:47.731Z,21.77
2022-08-03T19:27:15.972Z,21.62
2022-08-03T19:30:00.494Z,21.47
2022-08-03T19:32:30.178Z,21.42
2022-08-03T19:34:59.646Z,21.93
2022-08-03T19:37:38.731Z,21.47
2022-08-03T19:40:10.964Z,21.41
2022-08-03T19:42:44.490Z,21.20
2022-08-03T19:45:14.910Z,20.93
2022-08-03T19:48:05.655Z,21.07
2022-08-03T19:50:37.633Z,20.97
2022-08-03T19:53:12.892Z,20.62
2022-08-03T19:55:46.450Z,20.60
2022-08-03T19:58:24.402Z,20.48
2022-08-03T20:00:55.458Z,20.57
2022-08-03T20:03:24.927Z,20.85
2022-08-03T20:05:52.397Z,20.46
2022-08-03T20:08:21.859Z,20.36
2022-08-03T20:10:49.443Z,20.23
2022-08-03T20:13:19.318Z,20.27
2022-08-03T20:15:46.311Z,20.29
2022-08-03T20:18:16.566Z,20.02
2022-08-03T20:20:48.105Z,19.98
2022-08-03T20:23:18.252Z,20.02
2022-08-03T20:25:58.578Z,20.01
2022-08-03T20:28:34.568Z,19.88
2022-08-03T20:31:01.936Z,19.66
2022-08-03T20:33:48.440Z,19.84
2022-08-03T20:36:15.911Z,19.71
2022-08-03T20:38:47.047Z,19.60
2022-08-03T20:41:14.185Z,19.50
2022-08-03T20:43:41.670Z,19.42
2022-08-03T20:46:31.889Z,19.34
2022-08-03T20:48:57.168Z,19.34
2022-08-03T20:51:50.425Z,19.29
2022-08-03T20:54:22.492Z,19.24
2022-08-03T20:56:56.389Z,19.15
2022-08-03T20:59:23.382Z,19.30
2022-08-03T21:01:50.770Z,19.12
2022-08-03T21:04:20.861Z,18.81
2022-08-03T21:06:54.143Z,18.95
2022-08-03T21:09:39.844Z,18.95
2022-08-03T21:12:15.391Z,18.80
2022-08-03T21:12:56.703Z,26.97
2022-08-03T21:13:04.191Z,25.65
2022-08-03T21:15:01.587Z,18.83
2022-08-03T21:17:40.544Z,18.75
2022-08-03T21:20:10.267Z,18.51
2022-08-03T21:22:44.059Z,18.61
2022-08-03T21:25:13.374Z,18.53
2022-08-03T21:27:40.597Z,18.34
2022-08-03T21:30:10.450Z,18.24
2022-08-03T21:32:40.286Z,18.20
2022-08-03T21:35:10.699Z,18.34
2022-08-03T21:37:39.197Z,18.42
2022-08-03T21:40:06.966Z,18.21
2022-08-03T21:42:33.786Z,18.16
2022-08-03T21:45:00.323Z,18.11
2022-08-03T21:47:27.151Z,18.13
2022-08-03T21:50:06.384Z,17.98
2022-08-03T21:52:40.501Z,18.05
2022-08-03T21:55:08.223Z,17.86
2022-08-03T21:57:37.607Z,18.07
2022-08-03T22:00:07.943Z,18.04
2022-08-03T22:02:34.916Z,17.90
2022-08-03T22:05:04.963Z,17.83
2022-08-03T22:07:32.461Z,17.54
2022-08-03T22:10:01.595Z,17.64
2022-08-03T22:12:30.183Z,17.63
2022-08-03T22:15:00.136Z,17.61
2022-08-03T22:17:56.055Z,17.53
2022-08-03T22:20:17.317Z,17.37
2022-08-03T22:22:53.631Z,17.39
2022-08-03T22:25:25.173Z,17.47
2022-08-03T22:27:52.878Z,17.27
2022-08-03T22:30:19.685Z,17.34
2022-08-03T22:32:49.151Z,17.29
2022-08-03T22:35:20.106Z,17.46
2022-08-03T22:37:49.078Z,17.42
2022-08-03T22:40:16.771Z,17.39
2022-08-03T22:42:45.849Z,17.38
2022-08-03T22:46:07.581Z,17.23
2022-08-03T22:48:00.016Z,17.25
2022-08-03T22:50:32.635Z,17.38
2022-08-03T22:53:00.161Z,17.22
2022-08-03T22:55:27.197Z,17.30
2022-08-03T22:57:56.105Z,17.26
2022-08-03T23:00:23.420Z,17.28
2022-08-03T23:02:51.821Z,17.29
2022-08-03T23:06:02.188Z,17.10
2022-08-03T23:08:14.681Z,17.18
2022-08-03T23:10:46.652Z,17.05
2022-08-03T23:13:16.368Z,17.00
2022-08-03T23:15:51.468Z,17.07
2022-08-03T23:18:20.798Z,16.86
2022-08-03T23:20:51.436Z,16.80
2022-08-03T23:23:19.971Z,16.94
2022-08-03T23:25:49.285Z,16.65
2022-08-03T23:28:16.374Z,16.77
2022-08-03T23:30:44.538Z,16.67
2022-08-03T23:33:13.639Z,16.54
2022-08-03T23:36:28.015Z,16.66
2022-08-03T23:38:48.385Z,16.46
2022-08-03T23:41:15.609Z,16.23
2022-08-03T23:43:53.609Z,16.40
2022-08-03T23:46:25.784Z,16.36
2022-08-03T23:48:53.715Z,16.40
2022-08-03T23:51:39.095Z,16.53
2022-08-03T23:54:26.941Z,16.67
2022-08-03T23:57:02.317Z,16.54
2022-08-03T23:59:34.667Z,16.46
